createdAt,value
2023-03-22T00:02:13.906Z,98.81
2023-03-22T00:04:43.106Z,98.59
2023-03-22T00:07:09.610Z,98.50
2023-03-22T00:09:36.584Z,98.85
2023-03-22T00:12:03.297Z,98.93
2023-03-22T00:14:29.821Z,98.49
2023-03-22T00:16:56.491Z,98.63
2023-03-22T00:19:22.955Z,98.49
2023-03-22T00:21:51.314Z,98.72
2023-03-22T00:24:17.973Z,98.69
2023-03-22T00:26:46.986Z,98.57
2023-03-22T00:29:14.047Z,99.00
2023-03-22T00:31:41.425Z,98.87
2023-03-22T00:34:07.928Z,98.72
2023-03-22T00:36:34.357Z,98.37
2023-03-22T00:39:01.120Z,98.34
2023-03-22T00:41:27.545Z,98.52
2023-03-22T00:43:53.962Z,98.09
2023-03-22T00:46:21.188Z,98.47
2023-03-22T00:48:48.055Z,97.12
2023-03-22T00:51:16.002Z,97.04
2023-03-22T00:53:43.741Z,97.49
2023-03-22T00:56:16.169Z,97.46
2023-03-22T00:58:47.809Z,97.62
2023-03-22T01:01:15.302Z,97.36
2023-03-22T01:03:43.584Z,97.81
2023-03-22T01:06:13.798Z,97.97
2023-03-22T01:08:40.459Z,98.13
2023-03-22T01:11:07.641Z,97.97
2023-03-22T01:13:37.465Z,97.23
2023-03-22T01:16:05.935Z,97.11
2023-03-22T01:18:33.650Z,96.54
2023-03-22T01:21:00.262Z,97.03
2023-03-22T01:23:26.844Z,97.00
2023-03-22T01:25:53.365Z,96.52
2023-03-22T01:28:19.934Z,96.27
2023-03-22T01:30:46.474Z,95.85
2023-03-22T01:33:13.040Z,95.61
2023-03-22T01:35:39.519Z,95.35
2023-03-22T01:38:07.146Z,95.76
2023-03-22T01:40:38.353Z,94.65
2023-03-22T01:43:13.473Z,94.77
2023-03-22T01:45:49.038Z,95.10
2023-03-22T01:48:26.200Z,94.47
2023-03-22T01:51:02.849Z,95.03
2023-03-22T01:53:38.974Z,94.87
2023-03-22T01:56:07.585Z,95.03
2023-03-22T01:58:37.067Z,94.35
2023-03-22T02:01:07.604Z,94.40
2023-03-22T02:03:56.881Z,93.14
2023-03-22T02:06:25.650Z,93.69
2023-03-22T02:08:59.106Z,93.14
2023-03-22T02:11:41.526Z,93.36
2023-03-22T02:14:40.272Z,93.62
2023-03-22T02:17:43.660Z,93.85
2023-03-22T02:20:45.272Z,93.17
2023-03-22T02:23:42.797Z,93.93
2023-03-22T02:26:31.105Z,93.06
2023-03-22T02:29:16.309Z,92.61
2023-03-22T02:32:12.627Z,93.37
2023-03-22T02:35:05.171Z,93.41
2023-03-22T02:37:56.996Z,93.57
2023-03-22T02:40:43.812Z,94.07
2023-03-22T02:43:34.496Z,93.92
2023-03-22T02:46:23.165Z,93.50
2023-03-22T02:49:08.207Z,93.40
2023-03-22T02:51:43.558Z,94.54
2023-03-22T02:54:18.489Z,94.50
2023-03-22T02:56:49.621Z,94.86
2023-03-22T02:59:19.298Z,93.67
2023-03-22T03:01:50.609Z,94.24
2023-03-22T03:04:21.160Z,93.69
2023-03-22T03:06:51.693Z,94.09
2023-03-22T03:09:20.454Z,94.41
2023-03-22T03:11:49.780Z,94.00
2023-03-22T03:14:21.456Z,95.14
2023-03-22T03:17:02.085Z,94.30
2023-03-22T03:19:39.340Z,94.25
2023-03-22T03:22:25.897Z,94.00
2023-03-22T03:25:51.541Z,94.81
2023-03-22T03:28:38.094Z,94.63
2023-03-22T03:31:10.590Z,94.04
2023-03-22T03:33:48.459Z,95.01
2023-03-22T03:36:18.067Z,94.49
2023-03-22T03:38:49.099Z,94.70
2023-03-22T03:41:24.467Z,94.00
2023-03-22T03:43:52.864Z,94.35
2023-03-22T03:46:20.893Z,94.55
2023-03-22T03:48:50.373Z,94.55
2023-03-22T03:51:16.925Z,94.50
2023-03-22T03:53:43.748Z,94.55
2023-03-22T03:56:11.285Z,93.47
2023-03-22T03:58:42.907Z,93.67
2023-03-22T04:01:09.609Z,94.04
2023-03-22T04:03:55.295Z,94.11
2023-03-22T04:06:40.271Z,94.06
2023-03-22T04:09:11.859Z,94.48
2023-03-22T04:11:42.390Z,94.19
2023-03-22T04:14:08.969Z,94.45
2023-03-22T04:16:35.497Z,94.59
2023-03-22T04:19:02.579Z,94.47
2023-03-22T04:21:29.217Z,93.92
2023-03-22T04:24:01.055Z,93.81
2023-03-22T04:26:30.730Z,93.97
2023-03-22T04:29:36.494Z,93.33
2023-03-22T04:32:25.076Z,93.78
2023-03-22T04:34:53.263Z,94.04
2023-03-22T04:37:22.560Z,93.65
2023-03-22T04:39:56.100Z,93.57
2023-03-22T04:42:30.836Z,93.82
2023-03-22T04:45:07.974Z,93.79
2023-03-22T04:47:35.475Z,93.17
2023-03-22T04:50:07.296Z,93.67
2023-03-22T04:52:39.660Z,92.90
2023-03-22T04:55:07.140Z,93.76
2023-03-22T04:57:35.143Z,93.93
2023-03-22T05:00:08.456Z,93.40
2023-03-22T05:02:39.963Z,93.56
2023-03-22T05:05:11.017Z,92.57
2023-03-22T05:07:40.106Z,92.97
2023-03-22T05:10:08.822Z,93.25
2023-03-22T05:12:35.344Z,93.62
2023-03-22T05:15:20.536Z,93.41
2023-03-22T05:17:49.198Z,93.40
2023-03-22T05:20:15.919Z,93.69
2023-03-22T05:22:50.516Z,93.55
2023-03-22T05:25:18.514Z,93.93
2023-03-22T05:27:46.085Z,94.06
2023-03-22T05:30:36.056Z,93.85
2023-03-22T05:33:22.587Z,93.13
2023-03-22T05:35:52.762Z,93.14
2023-03-22T05:38:19.599Z,92.94
2023-03-22T05:40:50.641Z,92.49
2023-03-22T05:43:17.193Z,92.29
2023-03-22T05:45:48.091Z,92.68
2023-03-22T05:48:36.365Z,92.02
2023-03-22T05:51:07.074Z,92.27
2023-03-22T05:53:34.577Z,91.92
2023-03-22T05:56:09.947Z,91.66
2023-03-22T05:58:38.212Z,91.30
2023-03-22T06:01:11.498Z,90.96
2023-03-22T06:03:57.903Z,90.94
2023-03-22T06:06:30.525Z,90.28
2023-03-22T06:09:17.281Z,91.06
2023-03-22T06:11:47.082Z,90.95
2023-03-22T06:14:16.027Z,90.95
2023-03-22T06:17:01.876Z,90.19
2023-03-22T06:19:28.642Z,90.82
2023-03-22T06:21:56.014Z,90.59
2023-03-22T06:24:25.582Z,90.49
2023-03-22T06:26:52.031Z,90.51
2023-03-22T06:29:18.570Z,89.47
2023-03-22T06:31:45.509Z,89.43
2023-03-22T06:34:12.801Z,89.69
2023-03-22T06:36:42.295Z,89.55
2023-03-22T06:39:15.323Z,88.45
2023-03-22T06:41:44.178Z,89.10
2023-03-22T06:44:11.104Z,89.38
2023-03-22T06:47:00.586Z,88.45
2023-03-22T06:49:40.604Z,88.42
2023-03-22T06:52:08.958Z,88.81
2023-03-22T06:54:35.880Z,88.66
2023-03-22T06:57:03.439Z,88.46
2023-03-22T06:59:30.190Z,88.77
2023-03-22T07:01:56.685Z,88.74
2023-03-22T07:04:24.178Z,88.85
2023-03-22T07:06:51.668Z,88.64
2023-03-22T07:09:18.459Z,88.49
2023-03-22T07:11:47.898Z,88.38
2023-03-22T07:14:16.355Z,88.05
2023-03-22T07:17:09.641Z,89.19
2023-03-22T07:19:36.148Z,88.05
2023-03-22T07:22:07.826Z,87.86
2023-03-22T07:24:37.160Z,88.44
2023-03-22T07:27:07.742Z,88.08
2023-03-22T07:29:34.370Z,87.71
2023-03-22T07:32:02.989Z,88.58
2023-03-22T07:34:49.656Z,87.88
2023-03-22T07:37:18.440Z,86.20
2023-03-22T07:39:45.468Z,86.30
2023-03-22T07:42:12.085Z,86.45
2023-03-22T07:44:41.977Z,85.77
2023-03-22T07:47:27.222Z,84.96
2023-03-22T07:50:26.523Z,84.46
2023-03-22T07:52:55.892Z,83.52
2023-03-22T07:55:22.379Z,83.86
2023-03-22T07:57:48.850Z,83.64
2023-03-22T08:00:16.495Z,83.41
2023-03-22T08:02:48.195Z,83.49
2023-03-22T08:05:36.152Z,83.20
2023-03-22T08:08:05.461Z,83.42
2023-03-22T08:10:32.860Z,83.41
2023-03-22T08:13:00.693Z,83.69
2023-03-22T08:15:27.899Z,83.26
2023-03-22T08:17:57.897Z,83.15
2023-03-22T08:20:31.765Z,83.19
2023-03-22T08:23:02.748Z,83.53
2023-03-22T08:25:53.638Z,83.65
2023-03-22T08:28:21.066Z,82.47
2023-03-22T08:30:49.507Z,81.35
2023-03-22T08:33:21.119Z,81.53
2023-03-22T08:35:47.876Z,81.28
2023-03-22T08:38:14.520Z,81.03
2023-03-22T08:40:47.499Z,80.67
2023-03-22T08:43:17.283Z,79.83
2023-03-22T08:45:44.883Z,80.61
2023-03-22T08:48:16.507Z,80.00
2023-03-22T08:50:58.548Z,81.00
2023-03-22T08:53:35.482Z,80.76
2023-03-22T08:56:22.627Z,80.07
2023-03-22T08:59:00.958Z,79.87
2023-03-22T09:01:38.391Z,79.51
2023-03-22T09:04:10.153Z,79.70
2023-03-22T09:06:37.429Z,77.27
2023-03-22T09:09:04.187Z,78.10
2023-03-22T09:11:31.929Z,77.76
2023-03-22T09:13:58.348Z,76.80
2023-03-22T09:16:25.357Z,76.77
2023-03-22T09:18:52.122Z,76.42
2023-03-22T09:21:21.817Z,76.54
2023-03-22T09:24:07.474Z,76.61
2023-03-22T09:26:46.770Z,76.63
2023-03-22T09:29:16.351Z,76.24
2023-03-22T09:31:45.060Z,77.06
2023-03-22T09:34:25.691Z,76.17
2023-03-22T09:36:52.722Z,75.30
2023-03-22T09:39:22.572Z,75.43
2023-03-22T09:41:57.451Z,74.11
2023-03-22T09:44:27.296Z,72.19
2023-03-22T09:46:56.745Z,68.71
2023-03-22T09:49:28.863Z,68.75
2023-03-22T09:51:55.890Z,66.89
2023-03-22T09:54:37.368Z,66.35
2023-03-22T09:57:24.980Z,65.91
2023-03-22T10:00:02.062Z,65.17
2023-03-22T10:02:52.378Z,65.75
2023-03-22T10:05:24.130Z,64.79
2023-03-22T10:08:15.526Z,62.83
2023-03-22T10:10:43.072Z,62.56
2023-03-22T10:13:37.817Z,62.14
2023-03-22T10:16:16.390Z,62.00
2023-03-22T10:18:48.559Z,62.91
2023-03-22T10:21:18.247Z,62.59
2023-03-22T10:23:46.840Z,62.79
2023-03-22T10:26:38.507Z,62.14
2023-03-22T10:29:13.294Z,61.60
2023-03-22T10:31:43.647Z,61.15
2023-03-22T10:34:22.438Z,61.08
2023-03-22T10:36:52.125Z,61.08
2023-03-22T10:39:31.452Z,61.08
2023-03-22T10:42:02.234Z,61.11
2023-03-22T10:44:34.634Z,61.10
2023-03-22T10:47:08.046Z,61.09
2023-03-22T10:49:49.819Z,61.13
2023-03-22T10:52:36.860Z,61.32
2023-03-22T10:55:04.778Z,60.47
2023-03-22T10:57:31.260Z,58.85
2023-03-22T10:59:58.007Z,59.48
2023-03-22T11:02:32.475Z,59.58
2023-03-22T11:05:07.022Z,60.55
2023-03-22T11:07:40.241Z,60.17
2023-03-22T11:10:09.053Z,59.26
2023-03-22T11:12:40.011Z,59.09
2023-03-22T11:15:18.809Z,59.02
2023-03-22T11:17:45.720Z,58.94
2023-03-22T11:20:18.043Z,58.63
2023-03-22T11:22:48.217Z,58.47
2023-03-22T11:25:20.501Z,58.13
2023-03-22T11:28:16.519Z,58.20
2023-03-22T11:30:57.634Z,58.45
2023-03-22T11:33:28.272Z,58.87
2023-03-22T11:35:58.112Z,58.51
2023-03-22T11:38:39.362Z,58.05
2023-03-22T11:41:23.269Z,57.49
2023-03-22T11:44:04.526Z,58.08
2023-03-22T11:46:32.620Z,58.72
2023-03-22T11:49:03.145Z,59.46
2023-03-22T11:51:33.493Z,58.87
2023-03-22T11:54:08.560Z,58.21
2023-03-22T11:56:40.967Z,57.30
2023-03-22T11:59:16.783Z,57.19
2023-03-22T12:01:54.750Z,57.26
2023-03-22T12:04:26.693Z,57.72
2023-03-22T12:06:58.219Z,57.79
2023-03-22T12:09:35.869Z,57.90
2023-03-22T12:12:06.524Z,56.98
2023-03-22T12:14:51.767Z,56.69
2023-03-22T12:17:37.595Z,57.22
2023-03-22T12:20:42.374Z,56.49
2023-03-22T12:23:18.674Z,56.53
2023-03-22T12:26:00.959Z,57.40
2023-03-22T12:28:33.587Z,57.01
2023-03-22T12:31:03.734Z,56.74
2023-03-22T12:33:43.546Z,57.06
2023-03-22T12:36:22.025Z,57.75
2023-03-22T12:38:53.973Z,57.01
2023-03-22T12:41:38.593Z,56.53
2023-03-22T12:44:18.611Z,56.65
2023-03-22T12:47:24.887Z,57.84
2023-03-22T12:49:58.842Z,57.11
2023-03-22T12:52:45.458Z,56.95
2023-03-22T12:55:28.116Z,56.85
2023-03-22T12:57:55.599Z,56.74
2023-03-22T13:00:28.467Z,56.53
2023-03-22T13:03:02.038Z,56.33
2023-03-22T13:05:33.313Z,56.56
2023-03-22T13:08:03.671Z,56.17
2023-03-22T13:10:33.965Z,55.34
2023-03-22T13:13:21.551Z,55.59
2023-03-22T13:16:10.907Z,55.67
2023-03-22T13:18:40.627Z,56.31
2023-03-22T13:21:29.812Z,57.08
2023-03-22T13:24:05.207Z,55.94
2023-03-22T13:26:45.735Z,56.98
2023-03-22T13:29:24.725Z,56.75
2023-03-22T13:31:51.141Z,57.00
2023-03-22T13:34:20.978Z,56.33
2023-03-22T13:36:53.837Z,57.00
2023-03-22T13:39:23.206Z,58.09
2023-03-22T13:42:02.010Z,60.69
2023-03-22T13:44:38.877Z,60.94
2023-03-22T13:47:28.255Z,61.56
2023-03-22T13:50:01.043Z,61.97
2023-03-22T13:52:34.910Z,63.22
2023-03-22T13:55:01.863Z,64.27
2023-03-22T13:57:47.633Z,65.03
2023-03-22T14:00:35.033Z,66.51
2023-03-22T14:03:07.309Z,66.70
2023-03-22T14:05:37.371Z,68.48
2023-03-22T14:08:05.162Z,67.82
2023-03-22T14:10:48.764Z,69.13
2023-03-22T14:13:31.766Z,68.60
2023-03-22T14:16:06.532Z,68.28
2023-03-22T14:18:39.826Z,69.12
2023-03-22T14:21:12.243Z,68.48
